sensor_id;sensor_type;location;lat;lon;timestamp;P1;durP1;ratioP1;P2;durP2;ratioP2
1765;SDS011;880;52.452;8.656;2022-07-29T00:02:30;3.13;;;2.53;;
1765;SDS011;880;52.452;8.656;2022-07-29T00:04:58;2.20;;;2.00;;
1765;SDS011;880;52.452;8.656;2022-07-29T00:07:25;4.27;;;2.27;;
1765;SDS011;880;52.452;8.656;2022-07-29T00:09:52;3.20;;;1.70;;
1765;SDS011;880;52.452;8.656;2022-07-29T00:12:20;1.93;;;1.70;;
1765;SDS011;880;52.452;8.656;2022-07-29T00:14:55;2.23;;;2.03;;
1765;SDS011;880;52.452;8.656;2022-07-29T00:17:23;2.80;;;1.90;;
1765;SDS011;880;52.452;8.656;2022-07-29T00:19:51;2.10;;;2.00;;
1765;SDS011;880;52.452;8.656;2022-07-29T00:22:18;3.87;;;2.30;;
1765;SDS011;880;52.452;8.656;2022-07-29T00:24:49;2.50;;;2.00;;
1765;SDS011;880;52.452;8.656;2022-07-29T00:27:16;2.50;;;2.00;;
1765;SDS011;880;52.452;8.656;2022-07-29T00:29:44;6.00;;;2.30;;
1765;SDS011;880;52.452;8.656;2022-07-29T00:32:11;2.27;;;1.90;;
1765;SDS011;880;52.452;8.656;2022-07-29T00:34:38;4.47;;;2.27;;
1765;SDS011;880;52.452;8.656;2022-07-29T00:37:24;3.50;;;2.20;;
1765;SDS011;880;52.452;8.656;2022-07-29T00:39:51;1.90;;;1.80;;
1765;SDS011;880;52.452;8.656;2022-07-29T00:42:18;4.00;;;2.17;;
1765;SDS011;880;52.452;8.656;2022-07-29T00:44:46;9.10;;;2.37;;
1765;SDS011;880;52.452;8.656;2022-07-29T00:47:13;2.17;;;1.97;;
1765;SDS011;880;52.452;8.656;2022-07-29T00:49:40;5.30;;;2.03;;
1765;SDS011;880;52.452;8.656;2022-07-29T00:52:09;2.00;;;1.73;;
1765;SDS011;880;52.452;8.656;2022-07-29T00:54:40;3.83;;;2.10;;
1765;SDS011;880;52.452;8.656;2022-07-29T00:57:10;4.13;;;1.70;;
1765;SDS011;880;52.452;8.656;2022-07-29T00:59:38;1.93;;;1.73;;
1765;SDS011;880;52.452;8.656;2022-07-29T01:02:06;5.30;;;2.23;;
1765;SDS011;880;52.452;8.656;2022-07-29T01:04:34;3.03;;;1.90;;
1765;SDS011;880;52.452;8.656;2022-07-29T01:07:02;2.13;;;2.03;;
1765;SDS011;880;52.452;8.656;2022-07-29T01:09:31;6.77;;;2.07;;
1765;SDS011;880;52.452;8.656;2022-07-29T01:12:17;3.50;;;2.00;;
1765;SDS011;880;52.452;8.656;2022-07-29T01:14:47;3.33;;;1.93;;
1765;SDS011;880;52.452;8.656;2022-07-29T01:20:02;2.60;;;1.87;;
1765;SDS011;880;52.452;8.656;2022-07-29T01:31:24;2.30;;;1.77;;
1765;SDS011;880;52.452;8.656;2022-07-29T01:34:38;2.90;;;1.80;;
1765;SDS011;880;52.452;8.656;2022-07-29T01:37:24;2.90;;;1.60;;
1765;SDS011;880;52.452;8.656;2022-07-29T01:40:20;2.53;;;1.80;;
1765;SDS011;880;52.452;8.656;2022-07-29T01:42:56;2.60;;;2.10;;
1765;SDS011;880;52.452;8.656;2022-07-29T01:45:28;1.90;;;1.80;;
1765;SDS011;880;52.452;8.656;2022-07-29T01:48:13;2.73;;;2.20;;
1765;SDS011;880;52.452;8.656;2022-07-29T01:50:53;3.17;;;1.67;;
1765;SDS011;880;52.452;8.656;2022-07-29T01:53:34;2.77;;;1.80;;
1765;SDS011;880;52.452;8.656;2022-07-29T01:56:08;4.97;;;2.13;;
1765;SDS011;880;52.452;8.656;2022-07-29T01:58:38;1.90;;;1.67;;
1765;SDS011;880;52.452;8.656;2022-07-29T02:01:08;2.83;;;2.10;;
1765;SDS011;880;52.452;8.656;2022-07-29T02:03:37;3.13;;;1.90;;
1765;SDS011;880;52.452;8.656;2022-07-29T02:06:05;2.17;;;1.97;;
1765;SDS011;880;52.452;8.656;2022-07-29T02:08:35;1.93;;;1.73;;
1765;SDS011;880;52.452;8.656;2022-07-29T02:11:04;1.63;;;1.53;;
1765;SDS011;880;52.452;8.656;2022-07-29T02:13:33;3.13;;;2.10;;
1765;SDS011;880;52.452;8.656;2022-07-29T02:16:02;2.43;;;1.60;;
1765;SDS011;880;52.452;8.656;2022-07-29T02:18:33;2.93;;;1.80;;
1765;SDS011;880;52.452;8.656;2022-07-29T02:21:04;2.37;;;1.83;;
1765;SDS011;880;52.452;8.656;2022-07-29T02:23:41;2.47;;;1.97;;
1765;SDS011;880;52.452;8.656;2022-07-29T02:26:17;3.70;;;2.10;;
1765;SDS011;880;52.452;8.656;2022-07-29T02:28:46;1.90;;;1.70;;
1765;SDS011;880;52.452;8.656;2022-07-29T02:31:16;3.30;;;2.30;;
1765;SDS011;880;52.452;8.656;2022-07-29T02:33:48;4.83;;;1.70;;
1765;SDS011;880;52.452;8.656;2022-07-29T02:36:16;2.37;;;1.93;;
1765;SDS011;880;52.452;8.656;2022-07-29T02:38:47;2.50;;;1.80;;
1765;SDS011;880;52.452;8.656;2022-07-29T02:42:05;2.07;;;1.70;;
1765;SDS011;880;52.452;8.656;2022-07-29T02:44:16;2.60;;;1.80;;
1765;SDS011;880;52.452;8.656;2022-07-29T02:47:02;5.43;;;1.63;;
1765;SDS011;880;52.452;8.656;2022-07-29T02:50:02;3.50;;;1.90;;
1765;SDS011;880;52.452;8.656;2022-07-29T02:52:39;1.80;;;1.70;;
1765;SDS011;880;52.452;8.656;2022-07-29T02:55:13;2.57;;;1.60;;
1765;SDS011;880;52.452;8.656;2022-07-29T02:58:15;2.93;;;2.33;;
1765;SDS011;880;52.452;8.656;2022-07-29T03:01:07;2.13;;;1.93;;
1765;SDS011;880;52.452;8.656;2022-07-29T03:03:49;2.73;;;2.00;;
1765;SDS011;880;52.452;8.656;2022-07-29T03:06:20;4.60;;;2.37;;
1765;SDS011;880;52.452;8.656;2022-07-29T03:09:02;3.37;;;2.00;;
1765;SDS011;880;52.452;8.656;2022-07-29T03:11:37;3.53;;;1.90;;
1765;SDS011;880;52.452;8.656;2022-07-29T03:14:16;2.80;;;2.60;;
1765;SDS011;880;52.452;8.656;2022-07-29T03:16:46;3.37;;;2.10;;
1765;SDS011;880;52.452;8.656;2022-07-29T03:19:13;2.80;;;1.90;;
1765;SDS011;880;52.452;8.656;2022-07-29T03:21:40;2.97;;;1.93;;
1765;SDS011;880;52.452;8.656;2022-07-29T03:24:07;2.43;;;2.00;;
1765;SDS011;880;52.452;8.656;2022-07-29T03:26:36;2.40;;;2.20;;
1765;SDS011;880;52.452;8.656;2022-07-29T03:29:03;3.00;;;2.37;;
1765;SDS011;880;52.452;8.656;2022-07-29T03:31:30;3.17;;;1.77;;
1765;SDS011;880;52.452;8.656;2022-07-29T03:33:58;2.27;;;2.07;;
1765;SDS011;880;52.452;8.656;2022-07-29T03:36:26;3.67;;;2.00;;
1765;SDS011;880;52.452;8.656;2022-07-29T03:38:53;3.10;;;2.00;;
1765;SDS011;880;52.452;8.656;2022-07-29T03:41:20;2.50;;;2.30;;
1765;SDS011;880;52.452;8.656;2022-07-29T03:43:49;4.07;;;2.87;;
1765;SDS011;880;52.452;8.656;2022-07-29T03:46:18;2.30;;;1.87;;
1765;SDS011;880;52.452;8.656;2022-07-29T03:48:50;3.47;;;2.07;;
1765;SDS011;880;52.452;8.656;2022-07-29T03:51:22;2.03;;;1.90;;
1765;SDS011;880;52.452;8.656;2022-07-29T03:53:59;3.10;;;1.80;;
1765;SDS011;880;52.452;8.656;2022-07-29T03:56:37;3.30;;;2.00;;
1765;SDS011;880;52.452;8.656;2022-07-29T03:59:08;2.40;;;2.17;;
1765;SDS011;880;52.452;8.656;2022-07-29T04:01:37;2.90;;;2.20;;
1765;SDS011;880;52.452;8.656;2022-07-29T04:04:06;3.13;;;2.00;;
1765;SDS011;880;52.452;8.656;2022-07-29T04:06:39;2.30;;;2.07;;
1765;SDS011;880;52.452;8.656;2022-07-29T04:09:08;2.40;;;2.20;;
1765;SDS011;880;52.452;8.656;2022-07-29T04:11:36;3.10;;;2.30;;
1765;SDS011;880;52.452;8.656;2022-07-29T04:14:26;2.30;;;2.10;;
1765;SDS011;880;52.452;8.656;2022-07-29T04:16:53;4.00;;;2.10;;
1765;SDS011;880;52.452;8.656;2022-07-29T04:19:20;5.90;;;2.00;;
1765;SDS011;880;52.452;8.656;2022-07-29T04:21:46;3.50;;;1.90;;
1765;SDS011;880;52.452;8.656;2022-07-29T04:24:13;5.07;;;2.07;;
1765;SDS011;880;52.452;8.656;2022-07-29T04:26:41;2.60;;;2.40;;
1765;SDS011;880;52.452;8.656;2022-07-29T04:29:09;2.97;;;2.37;;
1765;SDS011;880;52.452;8.656;2022-07-29T04:31:38;2.63;;;2.00;;
1765;SDS011;880;52.452;8.656;2022-07-29T04:34:05;2.40;;;1.87;;
1765;SDS011;880;52.452;8.656;2022-07-29T04:36:32;3.80;;;2.20;;
1765;SDS011;880;52.452;8.656;2022-07-29T04:38:59;2.13;;;1.93;;
1765;SDS011;880;52.452;8.656;2022-07-29T04:41:27;2.60;;;2.37;;
1765;SDS011;880;52.452;8.656;2022-07-29T04:43:58;4.40;;;2.17;;
1765;SDS011;880;52.452;8.656;2022-07-29T04:46:32;2.40;;;2.23;;
1765;SDS011;880;52.452;8.656;2022-07-29T04:49:00;3.67;;;1.83;;
1765;SDS011;880;52.452;8.656;2022-07-29T04:51:28;5.90;;;2.17;;
1765;SDS011;880;52.452;8.656;2022-07-29T04:53:55;6.23;;;2.43;;
1765;SDS011;880;52.452;8.656;2022-07-29T04:56:22;2.60;;;1.97;;
1765;SDS011;880;52.452;8.656;2022-07-29T04:58:50;4.87;;;2.13;;
1765;SDS011;880;52.452;8.656;2022-07-29T05:01:17;7.20;;;2.40;;
1765;SDS011;880;52.452;8.656;2022-07-29T05:03:44;2.47;;;2.27;;
1765;SDS011;880;52.452;8.656;2022-07-29T05:06:11;2.30;;;1.90;;
1765;SDS011;880;52.452;8.656;2022-07-29T05:08:39;3.47;;;2.30;;
1765;SDS011;880;52.452;8.656;2022-07-29T05:11:07;3.20;;;2.10;;
1765;SDS011;880;52.452;8.656;2022-07-29T05:13:38;3.47;;;2.50;;
1765;SDS011;880;52.452;8.656;2022-07-29T05:16:12;3.93;;;2.63;;
1765;SDS011;880;52.452;8.656;2022-07-29T05:18:40;2.30;;;2.20;;
1765;SDS011;880;52.452;8.656;2022-07-29T05:21:08;3.77;;;2.43;;
1765;SDS011;880;52.452;8.656;2022-07-29T05:23:35;2.60;;;2.40;;
1765;SDS011;880;52.452;8.656;2022-07-29T05:26:02;2.47;;;2.37;;
1765;SDS011;880;52.452;8.656;2022-07-29T05:28:29;3.77;;;2.20;;
1765;SDS011;880;52.452;8.656;2022-07-29T05:31:01;3.40;;;2.10;;
1765;SDS011;880;52.452;8.656;2022-07-29T05:33:28;3.23;;;2.30;;
1765;SDS011;880;52.452;8.656;2022-07-29T05:36:02;2.87;;;2.57;;
1765;SDS011;880;52.452;8.656;2022-07-29T05:38:34;2.83;;;2.17;;
1765;SDS011;880;52.452;8.656;2022-07-29T05:41:01;3.00;;;2.20;;
1765;SDS011;880;52.452;8.656;2022-07-29T05:43:29;2.20;;;2.10;;
1765;SDS011;880;52.452;8.656;2022-07-29T05:45:56;5.33;;;2.70;;
1765;SDS011;880;52.452;8.656;2022-07-29T05:48:24;3.17;;;2.23;;
1765;SDS011;880;52.452;8.656;2022-07-29T05:50:51;2.40;;;2.30;;
1765;SDS011;880;52.452;8.656;2022-07-29T05:53:18;3.23;;;2.20;;
1765;SDS011;880;52.452;8.656;2022-07-29T05:55:46;2.30;;;2.20;;
1765;SDS011;880;52.452;8.656;2022-07-29T05:58:14;2.53;;;2.43;;
1765;SDS011;880;52.452;8.656;2022-07-29T06:00:42;2.33;;;2.13;;
1765;SDS011;880;52.452;8.656;2022-07-29T06:03:09;3.47;;;2.17;;
1765;SDS011;880;52.452;8.656;2022-07-29T06:05:36;3.30;;;2.30;;
1765;SDS011;880;52.452;8.656;2022-07-29T06:08:03;1.70;;;1.60;;
1765;SDS011;880;52.452;8.656;2022-07-29T06:10:36;3.50;;;2.60;;
1765;SDS011;880;52.452;8.656;2022-07-29T06:13:03;2.93;;;2.00;;
1765;SDS011;880;52.452;8.656;2022-07-29T06:15:30;3.33;;;2.40;;
1765;SDS011;880;52.452;8.656;2022-07-29T06:17:57;2.67;;;2.47;;
1765;SDS011;880;52.452;8.656;2022-07-29T06:20:28;3.57;;;2.13;;
1765;SDS011;880;52.452;8.656;2022-07-29T06:22:56;3.00;;;2.20;;
1765;SDS011;880;52.452;8.656;2022-07-29T06:25:24;5.17;;;2.50;;
1765;SDS011;880;52.452;8.656;2022-07-29T06:27:51;3.70;;;2.20;;
1765;SDS011;880;52.452;8.656;2022-07-29T06:30:18;3.90;;;2.23;;
1765;SDS011;880;52.452;8.656;2022-07-29T06:32:45;2.27;;;2.10;;
1765;SDS011;880;52.452;8.656;2022-07-29T06:35:13;3.17;;;2.40;;
1765;SDS011;880;52.452;8.656;2022-07-29T06:38:00;5.93;;;2.40;;
1765;SDS011;880;52.452;8.656;2022-07-29T06:40:40;5.03;;;2.33;;
1765;SDS011;880;52.452;8.656;2022-07-29T06:43:26;3.50;;;2.30;;
1765;SDS011;880;52.452;8.656;2022-07-29T06:46:18;4.83;;;2.30;;
1765;SDS011;880;52.452;8.656;2022-07-29T06:48:46;4.40;;;2.20;;
1765;SDS011;880;52.452;8.656;2022-07-29T06:51:14;4.10;;;2.27;;
1765;SDS011;880;52.452;8.656;2022-07-29T06:53:48;2.20;;;1.93;;
1765;SDS011;880;52.452;8.656;2022-07-29T06:56:31;4.20;;;2.40;;
1765;SDS011;880;52.452;8.656;2022-07-29T06:59:09;2.70;;;2.40;;
1765;SDS011;880;52.452;8.656;2022-07-29T07:01:37;6.13;;;2.33;;
1765;SDS011;880;52.452;8.656;2022-07-29T07:04:07;2.97;;;2.23;;
1765;SDS011;880;52.452;8.656;2022-07-29T07:06:35;2.53;;;2.30;;
1765;SDS011;880;52.452;8.656;2022-07-29T07:09:02;4.60;;;2.10;;
1765;SDS011;880;52.452;8.656;2022-07-29T07:11:29;2.53;;;2.20;;
1765;SDS011;880;52.452;8.656;2022-07-29T07:13:56;4.97;;;2.67;;
1765;SDS011;880;52.452;8.656;2022-07-29T07:16:28;3.07;;;2.20;;
1765;SDS011;880;52.452;8.656;2022-07-29T07:18:57;2.07;;;1.90;;
1765;SDS011;880;52.452;8.656;2022-07-29T07:21:24;4.80;;;2.50;;
1765;SDS011;880;52.452;8.656;2022-07-29T07:23:51;2.40;;;2.10;;
1765;SDS011;880;52.452;8.656;2022-07-29T07:26:17;4.60;;;2.40;;
1765;SDS011;880;52.452;8.656;2022-07-29T07:28:44;2.30;;;2.20;;
1765;SDS011;880;52.452;8.656;2022-07-29T07:31:11;4.20;;;2.43;;
1765;SDS011;880;52.452;8.656;2022-07-29T07:33:38;4.67;;;2.47;;
1765;SDS011;880;52.452;8.656;2022-07-29T07:36:06;1.90;;;1.80;;
1765;SDS011;880;52.452;8.656;2022-07-29T07:38:32;2.93;;;2.23;;
1765;SDS011;880;52.452;8.656;2022-07-29T07:41:00;1.83;;;1.73;;
1765;SDS011;880;52.452;8.656;2022-07-29T07:43:27;4.60;;;2.13;;
1765;SDS011;880;52.452;8.656;2022-07-29T07:45:54;4.37;;;2.40;;
1765;SDS011;880;52.452;8.656;2022-07-29T07:48:21;2.70;;;2.10;;
1765;SDS011;880;52.452;8.656;2022-07-29T07:50:48;2.87;;;2.37;;
1765;SDS011;880;52.452;8.656;2022-07-29T07:53:16;3.33;;;2.43;;
1765;SDS011;880;52.452;8.656;2022-07-29T07:55:43;3.40;;;2.50;;
1765;SDS011;880;52.452;8.656;2022-07-29T07:58:31;3.00;;;2.60;;
1765;SDS011;880;52.452;8.656;2022-07-29T08:00:58;4.73;;;2.70;;
1765;SDS011;880;52.452;8.656;2022-07-29T08:03:25;6.17;;;2.80;;
1765;SDS011;880;52.452;8.656;2022-07-29T08:05:52;3.80;;;2.57;;
1765;SDS011;880;52.452;8.656;2022-07-29T08:08:20;3.67;;;2.37;;
1765;SDS011;880;52.452;8.656;2022-07-29T08:10:47;3.30;;;2.40;;
1765;SDS011;880;52.452;8.656;2022-07-29T08:13:22;4.73;;;2.40;;
1765;SDS011;880;52.452;8.656;2022-07-29T08:15:54;6.50;;;2.30;;
1765;SDS011;880;52.452;8.656;2022-07-29T08:18:29;4.77;;;2.70;;
1765;SDS011;880;52.452;8.656;2022-07-29T08:20:57;3.37;;;2.13;;
1765;SDS011;880;52.452;8.656;2022-07-29T08:23:25;2.47;;;2.27;;
1765;SDS011;880;52.452;8.656;2022-07-29T08:26:12;3.40;;;2.40;;
1765;SDS011;880;52.452;8.656;2022-07-29T08:28:40;2.43;;;2.20;;
1765;SDS011;880;52.452;8.656;2022-07-29T08:31:14;4.73;;;2.73;;
1765;SDS011;880;52.452;8.656;2022-07-29T08:33:42;6.40;;;2.10;;
1765;SDS011;880;52.452;8.656;2022-07-29T08:36:09;2.87;;;2.50;;
1765;SDS011;880;52.452;8.656;2022-07-29T08:38:36;4.50;;;3.00;;
1765;SDS011;880;52.452;8.656;2022-07-29T08:41:03;4.30;;;2.43;;
1765;SDS011;880;52.452;8.656;2022-07-29T08:43:30;3.70;;;2.33;;
1765;SDS011;880;52.452;8.656;2022-07-29T08:45:58;4.50;;;2.13;;
1765;SDS011;880;52.452;8.656;2022-07-29T08:48:25;5.10;;;2.40;;
1765;SDS011;880;52.452;8.656;2022-07-29T08:50:52;2.70;;;2.07;;
1765;SDS011;880;52.452;8.656;2022-07-29T08:53:22;3.27;;;2.10;;
1765;SDS011;880;52.452;8.656;2022-07-29T08:55:53;4.20;;;2.50;;
1765;SDS011;880;52.452;8.656;2022-07-29T08:58:21;5.17;;;2.57;;
1765;SDS011;880;52.452;8.656;2022-07-29T09:00:51;6.93;;;2.40;;
1765;SDS011;880;52.452;8.656;2022-07-29T09:03:24;3.50;;;2.47;;
1765;SDS011;880;52.452;8.656;2022-07-29T09:06:00;4.30;;;2.50;;
1765;SDS011;880;52.452;8.656;2022-07-29T09:08:30;4.00;;;2.47;;
1765;SDS011;880;52.452;8.656;2022-07-29T09:11:00;5.50;;;2.70;;
1765;SDS011;880;52.452;8.656;2022-07-29T09:13:30;6.53;;;2.77;;
1765;SDS011;880;52.452;8.656;2022-07-29T09:15:57;5.73;;;3.20;;
1765;SDS011;880;52.452;8.656;2022-07-29T09:18:34;2.50;;;2.23;;
1765;SDS011;880;52.452;8.656;2022-07-29T09:21:07;4.50;;;2.67;;
1765;SDS011;880;52.452;8.656;2022-07-29T09:23:59;4.90;;;2.70;;
1765;SDS011;880;52.452;8.656;2022-07-29T09:26:29;3.40;;;2.73;;
1765;SDS011;880;52.452;8.656;2022-07-29T09:29:09;4.60;;;2.63;;
1765;SDS011;880;52.452;8.656;2022-07-29T09:31:40;3.27;;;2.50;;
1765;SDS011;880;52.452;8.656;2022-07-29T09:34:10;3.03;;;2.73;;
1765;SDS011;880;52.452;8.656;2022-07-29T09:36:40;5.90;;;2.50;;
1765;SDS011;880;52.452;8.656;2022-07-29T09:39:13;3.77;;;2.83;;
1765;SDS011;880;52.452;8.656;2022-07-29T09:41:49;4.57;;;2.50;;
1765;SDS011;880;52.452;8.656;2022-07-29T09:44:22;3.30;;;2.50;;
1765;SDS011;880;52.452;8.656;2022-07-29T09:49:25;6.10;;;2.47;;
1765;SDS011;880;52.452;8.656;2022-07-29T09:51:59;4.73;;;2.77;;
1765;SDS011;880;52.452;8.656;2022-07-29T09:54:31;2.90;;;2.33;;
1765;SDS011;880;52.452;8.656;2022-07-29T09:57:05;4.10;;;2.63;;
1765;SDS011;880;52.452;8.656;2022-07-29T09:59:38;2.63;;;2.40;;
1765;SDS011;880;52.452;8.656;2022-07-29T10:02:15;4.77;;;2.83;;
1765;SDS011;880;52.452;8.656;2022-07-29T10:04:50;2.90;;;2.30;;
1765;SDS011;880;52.452;8.656;2022-07-29T10:07:17;4.20;;;2.30;;
1765;SDS011;880;52.452;8.656;2022-07-29T10:09:55;2.73;;;2.30;;
1765;SDS011;880;52.452;8.656;2022-07-29T10:12:23;4.57;;;1.90;;
1765;SDS011;880;52.452;8.656;2022-07-29T10:14:50;5.37;;;2.20;;
1765;SDS011;880;52.452;8.656;2022-07-29T10:17:18;6.90;;;2.90;;
1765;SDS011;880;52.452;8.656;2022-07-29T10:19:45;3.40;;;2.40;;
1765;SDS011;880;52.452;8.656;2022-07-29T10:22:13;4.40;;;2.37;;
1765;SDS011;880;52.452;8.656;2022-07-29T10:24:40;4.23;;;2.27;;
1765;SDS011;880;52.452;8.656;2022-07-29T10:27:08;2.40;;;2.20;;
1765;SDS011;880;52.452;8.656;2022-07-29T10:29:35;5.70;;;2.53;;
1765;SDS011;880;52.452;8.656;2022-07-29T10:35:31;2.70;;;2.20;;
1765;SDS011;880;52.452;8.656;2022-07-29T10:38:15;4.70;;;2.23;;
1765;SDS011;880;52.452;8.656;2022-07-29T10:44:58;3.00;;;2.73;;
1765;SDS011;880;52.452;8.656;2022-07-29T10:47:25;4.03;;;2.47;;
1765;SDS011;880;52.452;8.656;2022-07-29T10:49:57;3.43;;;2.30;;
1765;SDS011;880;52.452;8.656;2022-07-29T10:55:32;2.67;;;2.10;;
1765;SDS011;880;52.452;8.656;2022-07-29T11:00:47;2.60;;;2.40;;
1765;SDS011;880;52.452;8.656;2022-07-29T11:07:06;3.27;;;2.53;;
1765;SDS011;880;52.452;8.656;2022-07-29T11:09:32;6.63;;;2.50;;
1765;SDS011;880;52.452;8.656;2022-07-29T11:12:04;2.73;;;2.40;;
1765;SDS011;880;52.452;8.656;2022-07-29T11:15:14;3.93;;;2.70;;
1765;SDS011;880;52.452;8.656;2022-07-29T11:37:13;3.53;;;2.33;;
1765;SDS011;880;52.452;8.656;2022-07-29T11:39:46;3.50;;;2.23;;
1765;SDS011;880;52.452;8.656;2022-07-29T11:45:19;7.00;;;2.27;;
1765;SDS011;880;52.452;8.656;2022-07-29T11:48:14;2.70;;;2.50;;
1765;SDS011;880;52.452;8.656;2022-07-29T11:50:57;3.73;;;2.77;;
1765;SDS011;880;52.452;8.656;2022-07-29T11:53:26;2.90;;;2.53;;
1765;SDS011;880;52.452;8.656;2022-07-29T11:55:58;3.50;;;2.10;;
1765;SDS011;880;52.452;8.656;2022-07-29T11:58:25;3.97;;;2.73;;
1765;SDS011;880;52.452;8.656;2022-07-29T12:00:54;4.47;;;3.43;;
1765;SDS011;880;52.452;8.656;2022-07-29T12:03:24;3.63;;;2.80;;
1765;SDS011;880;52.452;8.656;2022-07-29T12:06:02;4.20;;;2.60;;
1765;SDS011;880;52.452;8.656;2022-07-29T12:08:41;6.90;;;2.77;;
1765;SDS011;880;52.452;8.656;2022-07-29T12:11:19;22.07;;;3.60;;
1765;SDS011;880;52.452;8.656;2022-07-29T12:13:49;11.73;;;3.20;;
1765;SDS011;880;52.452;8.656;2022-07-29T12:16:18;2.87;;;2.53;;
1765;SDS011;880;52.452;8.656;2022-07-29T12:18:58;4.33;;;2.53;;
1765;SDS011;880;52.452;8.656;2022-07-29T12:21:50;2.63;;;2.40;;
1765;SDS011;880;52.452;8.656;2022-07-29T12:24:22;5.27;;;2.63;;
1765;SDS011;880;52.452;8.656;2022-07-29T12:26:56;4.63;;;2.67;;
1765;SDS011;880;52.452;8.656;2022-07-29T12:29:25;8.23;;;2.70;;
1765;SDS011;880;52.452;8.656;2022-07-29T12:32:01;5.37;;;2.63;;
1765;SDS011;880;52.452;8.656;2022-07-29T12:34:31;7.27;;;2.77;;
1765;SDS011;880;52.452;8.656;2022-07-29T12:36:58;3.60;;;2.77;;
1765;SDS011;880;52.452;8.656;2022-07-29T12:39:25;5.60;;;2.73;;
1765;SDS011;880;52.452;8.656;2022-07-29T12:41:54;5.03;;;2.50;;
1765;SDS011;880;52.452;8.656;2022-07-29T12:44:45;2.60;;;2.40;;
1765;SDS011;880;52.452;8.656;2022-07-29T12:47:15;4.00;;;2.27;;
1765;SDS011;880;52.452;8.656;2022-07-29T12:49:44;3.57;;;2.50;;
1765;SDS011;880;52.452;8.656;2022-07-29T12:52:26;3.83;;;2.73;;
1765;SDS011;880;52.452;8.656;2022-07-29T12:54:59;3.87;;;2.70;;
1765;SDS011;880;52.452;8.656;2022-07-29T12:57:27;3.67;;;2.70;;
1765;SDS011;880;52.452;8.656;2022-07-29T13:00:02;5.77;;;2.30;;
1765;SDS011;880;52.452;8.656;2022-07-29T13:02:34;4.50;;;3.03;;
1765;SDS011;880;52.452;8.656;2022-07-29T13:05:03;5.30;;;2.80;;
1765;SDS011;880;52.452;8.656;2022-07-29T13:07:32;7.77;;;2.43;;
1765;SDS011;880;52.452;8.656;2022-07-29T13:10:23;5.33;;;3.00;;
1765;SDS011;880;52.452;8.656;2022-07-29T13:13:11;3.40;;;2.33;;
1765;SDS011;880;52.452;8.656;2022-07-29T13:15:45;2.57;;;2.27;;
1765;SDS011;880;52.452;8.656;2022-07-29T13:18:32;4.70;;;2.80;;
1765;SDS011;880;52.452;8.656;2022-07-29T13:21:12;2.53;;;2.30;;
1765;SDS011;880;52.452;8.656;2022-07-29T13:23:43;5.20;;;2.90;;
1765;SDS011;880;52.452;8.656;2022-07-29T13:26:11;3.30;;;2.60;;
1765;SDS011;880;52.452;8.656;2022-07-29T13:28:38;3.20;;;2.90;;
1765;SDS011;880;52.452;8.656;2022-07-29T13:31:09;2.57;;;2.37;;
1765;SDS011;880;52.452;8.656;2022-07-29T13:33:36;5.30;;;2.97;;
1765;SDS011;880;52.452;8.656;2022-07-29T13:36:03;5.33;;;2.93;;
1765;SDS011;880;52.452;8.656;2022-07-29T13:38:30;4.00;;;2.80;;
1765;SDS011;880;52.452;8.656;2022-07-29T13:40:58;3.20;;;2.90;;
1765;SDS011;880;52.452;8.656;2022-07-29T13:43:25;4.03;;;2.30;;
1765;SDS011;880;52.452;8.656;2022-07-29T13:45:52;6.67;;;3.13;;
1765;SDS011;880;52.452;8.656;2022-07-29T13:48:19;6.37;;;2.70;;
1765;SDS011;880;52.452;8.656;2022-07-29T13:50:46;7.53;;;2.80;;
1765;SDS011;880;52.452;8.656;2022-07-29T13:53:14;6.67;;;3.23;;
1765;SDS011;880;52.452;8.656;2022-07-29T13:55:43;3.27;;;2.93;;
1765;SDS011;880;52.452;8.656;2022-07-29T13:58:10;6.90;;;3.10;;
1765;SDS011;880;52.452;8.656;2022-07-29T14:00:37;5.23;;;3.30;;
1765;SDS011;880;52.452;8.656;2022-07-29T14:03:04;4.63;;;2.87;;
1765;SDS011;880;52.452;8.656;2022-07-29T14:05:32;3.63;;;2.47;;
1765;SDS011;880;52.452;8.656;2022-07-29T14:07:59;3.30;;;2.97;;
1765;SDS011;880;52.452;8.656;2022-07-29T14:10:26;4.47;;;2.60;;
1765;SDS011;880;52.452;8.656;2022-07-29T14:12:53;4.53;;;3.57;;
1765;SDS011;880;52.452;8.656;2022-07-29T14:15:20;4.67;;;3.03;;
1765;SDS011;880;52.452;8.656;2022-07-29T14:17:47;10.80;;;3.73;;
1765;SDS011;880;52.452;8.656;2022-07-29T14:20:14;6.90;;;3.67;;
1765;SDS011;880;52.452;8.656;2022-07-29T14:22:42;6.97;;;2.87;;
1765;SDS011;880;52.452;8.656;2022-07-29T14:25:11;3.40;;;2.83;;
1765;SDS011;880;52.452;8.656;2022-07-29T14:27:41;5.60;;;3.10;;
1765;SDS011;880;52.452;8.656;2022-07-29T14:30:09;5.90;;;3.07;;
1765;SDS011;880;52.452;8.656;2022-07-29T14:32:37;8.20;;;4.20;;
1765;SDS011;880;52.452;8.656;2022-07-29T14:35:05;5.37;;;3.50;;
1765;SDS011;880;52.452;8.656;2022-07-29T14:37:32;9.47;;;3.57;;
1765;SDS011;880;52.452;8.656;2022-07-29T14:40:06;4.37;;;3.20;;
1765;SDS011;880;52.452;8.656;2022-07-29T14:42:34;8.77;;;3.40;;
1765;SDS011;880;52.452;8.656;2022-07-29T14:45:03;13.47;;;3.23;;
1765;SDS011;880;52.452;8.656;2022-07-29T14:47:33;5.80;;;3.53;;
1765;SDS011;880;52.452;8.656;2022-07-29T14:50:00;12.63;;;3.83;;
1765;SDS011;880;52.452;8.656;2022-07-29T14:52:28;5.60;;;2.87;;
1765;SDS011;880;52.452;8.656;2022-07-29T14:54:55;8.40;;;3.60;;
1765;SDS011;880;52.452;8.656;2022-07-29T14:57:22;3.83;;;3.37;;
1765;SDS011;880;52.452;8.656;2022-07-29T14:59:49;4.03;;;3.63;;
1765;SDS011;880;52.452;8.656;2022-07-29T15:02:16;4.27;;;3.10;;
1765;SDS011;880;52.452;8.656;2022-07-29T15:04:44;3.63;;;2.90;;
1765;SDS011;880;52.452;8.656;2022-07-29T15:07:12;4.93;;;2.97;;
1765;SDS011;880;52.452;8.656;2022-07-29T15:09:39;3.20;;;3.00;;
1765;SDS011;880;52.452;8.656;2022-07-29T15:12:15;12.17;;;3.60;;
1765;SDS011;880;52.452;8.656;2022-07-29T15:14:42;7.63;;;3.37;;
1765;SDS011;880;52.452;8.656;2022-07-29T15:17:09;5.73;;;3.17;;
1765;SDS011;880;52.452;8.656;2022-07-29T15:19:36;5.60;;;3.20;;
1765;SDS011;880;52.452;8.656;2022-07-29T15:22:09;5.03;;;3.33;;
1765;SDS011;880;52.452;8.656;2022-07-29T15:24:36;5.33;;;3.77;;
1765;SDS011;880;52.452;8.656;2022-07-29T15:27:03;5.73;;;3.00;;
1765;SDS011;880;52.452;8.656;2022-07-29T15:29:31;6.27;;;3.43;;
1765;SDS011;880;52.452;8.656;2022-07-29T15:31:58;8.73;;;3.93;;
1765;SDS011;880;52.452;8.656;2022-07-29T15:34:26;5.93;;;3.17;;
1765;SDS011;880;52.452;8.656;2022-07-29T15:36:53;5.87;;;3.73;;
1765;SDS011;880;52.452;8.656;2022-07-29T15:39:20;7.57;;;4.43;;
1765;SDS011;880;52.452;8.656;2022-07-29T15:41:48;6.23;;;3.17;;
1765;SDS011;880;52.452;8.656;2022-07-29T15:44:15;7.40;;;3.33;;
1765;SDS011;880;52.452;8.656;2022-07-29T15:46:42;6.20;;;3.50;;
1765;SDS011;880;52.452;8.656;2022-07-29T15:49:29;5.73;;;3.57;;
1765;SDS011;880;52.452;8.656;2022-07-29T15:52:17;12.70;;;4.07;;
1765;SDS011;880;52.452;8.656;2022-07-29T15:54:52;4.30;;;2.90;;
1765;SDS011;880;52.452;8.656;2022-07-29T15:57:21;6.00;;;3.80;;
1765;SDS011;880;52.452;8.656;2022-07-29T15:59:49;4.00;;;3.20;;
1765;SDS011;880;52.452;8.656;2022-07-29T16:02:16;4.57;;;3.80;;
1765;SDS011;880;52.452;8.656;2022-07-29T16:04:43;6.50;;;3.20;;
1765;SDS011;880;52.452;8.656;2022-07-29T16:07:13;5.90;;;3.60;;
1765;SDS011;880;52.452;8.656;2022-07-29T16:09:41;6.80;;;3.03;;
1765;SDS011;880;52.452;8.656;2022-07-29T16:12:14;4.40;;;3.73;;
1765;SDS011;880;52.452;8.656;2022-07-29T16:14:42;4.60;;;3.00;;
1765;SDS011;880;52.452;8.656;2022-07-29T16:17:09;6.50;;;3.67;;
1765;SDS011;880;52.452;8.656;2022-07-29T16:19:40;10.93;;;3.60;;
1765;SDS011;880;52.452;8.656;2022-07-29T16:22:11;6.00;;;3.10;;
1765;SDS011;880;52.452;8.656;2022-07-29T16:24:38;7.60;;;2.80;;
1765;SDS011;880;52.452;8.656;2022-07-29T16:27:06;6.63;;;3.23;;
1765;SDS011;880;52.452;8.656;2022-07-29T16:29:33;3.80;;;2.60;;
1765;SDS011;880;52.452;8.656;2022-07-29T16:32:02;7.40;;;3.70;;
1765;SDS011;880;52.452;8.656;2022-07-29T16:34:30;6.37;;;2.47;;
1765;SDS011;880;52.452;8.656;2022-07-29T16:36:57;4.17;;;2.60;;
1765;SDS011;880;52.452;8.656;2022-07-29T16:39:24;4.47;;;2.73;;
1765;SDS011;880;52.452;8.656;2022-07-29T16:41:52;6.93;;;3.40;;
1765;SDS011;880;52.452;8.656;2022-07-29T16:44:24;5.27;;;3.50;;
1765;SDS011;880;52.452;8.656;2022-07-29T16:46:51;6.40;;;3.60;;
1765;SDS011;880;52.452;8.656;2022-07-29T16:49:24;7.43;;;3.80;;